Time;durP1;ratioP1;P1;durP2;ratioP2;P2;SDS_P1;SDS_P2;PMS_P1;PMS_P2;Temp;Humidity;BMP_temperature;BMP_pressure;BME280_temperature;BME280_humidity;BME280_pressure;Samples;Min_cycle;Max_cycle;Signal;HPM_P1;HPM_P2
2024/01/18 00:01:31;;;;;;;49.00;38.67;;;10.40;99.90;;;;;;5055154;28;20056;-63
2024/01/18 00:03:57;;;;;;;44.28;36.85;;;10.50;99.90;;;;;;5055052;28;20505;-66
2024/01/18 00:06:23;;;;;;;41.97;34.72;;;10.60;99.90;;;;;;5055096;28;20021;-68
2024/01/18 00:08:48;;;;;;;42.08;34.05;;;10.60;99.90;;;;;;5053593;28;20028;-66
2024/01/18 00:11:15;;;;;;;42.88;35.38;;;10.60;99.90;;;;;;5054873;28;20017;-63
2024/01/18 00:13:41;;;;;;;38.80;32.38;;;10.60;99.90;;;;;;5054893;28;20119;-66
2024/01/18 00:16:07;;;;;;;37.65;31.08;;;10.60;99.90;;;;;;5054145;28;20116;-67
2024/01/18 00:18:32;;;;;;;39.58;33.10;;;10.50;99.90;;;;;;5054318;28;20021;-61
2024/01/18 00:20:58;;;;;;;34.63;30.33;;;10.50;99.90;;;;;;5054722;28;20056;-66
2024/01/18 00:23:24;;;;;;;33.28;27.40;;;10.50;99.90;;;;;;5054512;28;20021;-67
2024/01/18 00:25:49;;;;;;;33.05;27.38;;;10.50;99.90;;;;;;5054625;28;20028;-68
2024/01/18 00:28:15;;;;;;;32.05;27.75;;;10.60;99.90;;;;;;5054681;28;20517;-66
2024/01/18 00:30:41;;;;;;;27.17;23.52;;;10.60;99.90;;;;;;5054584;28;20028;-65
2024/01/18 00:33:06;;;;;;;27.63;23.85;;;10.70;99.90;;;;;;5054522;28;20060;-63
2024/01/18 00:35:32;;;;;;;28.83;24.40;;;10.70;99.90;;;;;;5054536;28;20032;-65
2024/01/18 00:37:58;;;;;;;25.65;21.95;;;10.70;99.90;;;;;;5054377;28;20021;-64
2024/01/18 00:40:23;;;;;;;29.30;25.85;;;10.70;99.90;;;;;;5054740;28;20487;-66
2024/01/18 00:42:49;;;;;;;24.75;21.17;;;10.70;99.90;;;;;;5054254;28;20017;-66
2024/01/18 00:45:15;;;;;;;23.90;19.25;;;10.70;99.90;;;;;;5054358;28;20063;-63
2024/01/18 00:47:40;;;;;;;32.03;26.05;;;10.80;99.90;;;;;;5054269;28;20071;-66
2024/01/18 00:50:06;;;;;;;23.80;21.10;;;10.80;99.90;;;;;;5054421;28;20475;-69
2024/01/18 00:52:32;;;;;;;33.33;27.35;;;10.80;99.90;;;;;;5053999;28;20028;-65
2024/01/18 00:54:58;;;;;;;30.95;24.67;;;10.80;99.90;;;;;;5054159;28;20033;-65
2024/01/18 00:57:23;;;;;;;28.45;23.75;;;10.70;99.90;;;;;;5053947;28;20036;-64
2024/01/18 00:59:49;;;;;;;24.42;21.15;;;10.70;99.90;;;;;;5054068;28;20028;-62
2024/01/18 01:02:15;;;;;;;24.85;22.08;;;10.70;99.90;;;;;;5054173;28;20066;-67
2024/01/18 01:04:40;;;;;;;27.42;23.83;;;10.70;99.90;;;;;;5053955;28;20009;-66
2024/01/18 01:07:06;;;;;;;28.77;23.48;;;10.70;99.90;;;;;;5053985;28;20021;-65
2024/01/18 01:09:32;;;;;;;28.20;24.45;;;10.70;99.90;;;;;;5053875;28;20028;-69
2024/01/18 01:11:57;;;;;;;25.50;22.60;;;10.60;99.90;;;;;;5053910;28;20124;-61
2024/01/18 01:14:23;;;;;;;24.77;21.25;;;10.60;99.90;;;;;;5052352;28;20498;-67
2024/01/18 01:16:49;;;;;;;24.05;19.70;;;10.70;99.90;;;;;;5054011;28;20103;-63
2024/01/18 01:19:14;;;;;;;14.98;12.32;;;10.80;99.90;;;;;;5053427;28;20483;-63
2024/01/18 01:21:40;;;;;;;9.77;8.32;;;11.10;99.90;;;;;;5053402;28;20491;-66
2024/01/18 01:24:06;;;;;;;9.98;8.10;;;11.60;99.90;;;;;;5053748;28;20036;-62
2024/01/18 01:26:31;;;;;;;5.75;4.72;;;11.90;99.90;;;;;;5053528;28;20021;-63
2024/01/18 01:28:57;;;;;;;6.35;4.35;;;12.30;99.90;;;;;;5053573;28;20057;-68
2024/01/18 01:31:23;;;;;;;4.10;3.33;;;12.80;99.90;;;;;;5053529;28;20074;-64
2024/01/18 01:33:49;;;;;;;3.83;2.15;;;13.30;99.90;;;;;;5053468;28;20032;-65
2024/01/18 01:36:14;;;;;;;3.05;1.35;;;13.60;99.90;;;;;;5053307;28;20020;-63
2024/01/18 01:38:40;;;;;;;2.72;1.80;;;13.90;99.90;;;;;;5053642;28;20025;-68
2024/01/18 01:41:06;;;;;;;2.38;1.77;;;14.20;99.90;;;;;;5053665;28;20525;-66
2024/01/18 01:43:32;;;;;;;3.45;2.05;;;14.30;99.90;;;;;;5053337;28;20029;-64
2024/01/18 01:45:58;;;;;;;1.92;1.33;;;14.50;99.90;;;;;;5053214;28;20017;-62
2024/01/18 01:48:24;;;;;;;3.13;2.00;;;14.60;99.10;;;;;;5053373;28;20025;-63
2024/01/18 01:50:51;;;;;;;4.95;2.45;;;14.70;99.40;;;;;;5053171;28;20017;-65
2024/01/18 01:53:20;;;;;;;7.45;5.40;;;14.70;98.80;;;;;;5053025;28;20182;-70
2024/01/18 01:55:46;;;;;;;5.80;4.95;;;14.70;98.70;;;;;;5053295;28;20096;-68
2024/01/18 01:58:15;;;;;;;5.72;4.18;;;14.70;98.20;;;;;;5053450;28;20025;-65
2024/01/18 02:00:42;;;;;;;4.70;3.80;;;14.80;97.60;;;;;;5053024;28;20025;-63
2024/01/18 02:03:08;;;;;;;5.45;4.30;;;14.80;97.40;;;;;;5053071;28;20025;-64
2024/01/18 02:05:34;;;;;;;4.05;3.40;;;14.90;96.70;;;;;;5052795;28;20108;-64
2024/01/18 02:08:00;;;;;;;4.22;3.20;;;14.90;96.40;;;;;;5052954;28;20021;-68
2024/01/18 02:10:27;;;;;;;2.67;2.35;;;14.90;95.60;;;;;;5053275;28;20498;-68
2024/01/18 02:12:54;;;;;;;3.22;2.40;;;14.90;94.50;;;;;;5052934;28;20021;-61
2024/01/18 02:15:21;;;;;;;3.10;1.75;;;15.00;94.80;;;;;;5052875;28;20024;-64
2024/01/18 02:17:46;;;;;;;2.03;1.83;;;15.10;94.00;;;;;;5053092;28;20018;-67
2024/01/18 02:20:12;;;;;;;2.88;2.00;;;15.10;94.20;;;;;;5052581;28;20392;-63
2024/01/18 02:22:45;;;;;;;2.97;2.30;;;15.10;94.30;;;;;;5052820;28;20028;-65
2024/01/18 02:25:22;;;;;;;1.50;1.25;;;15.10;93.90;;;;;;5051602;28;20399;-66
2024/01/18 02:27:48;;;;;;;1.42;0.93;;;15.10;93.20;;;;;;5051536;28;20369;-64
2024/01/18 02:30:13;;;;;;;1.58;1.20;;;15.20;92.50;;;;;;5052739;28;20036;-65
2024/01/18 02:32:39;;;;;;;1.27;0.90;;;15.30;92.50;;;;;;5052863;28;20021;-67
2024/01/18 02:35:05;;;;;;;1.67;0.80;;;15.30;92.40;;;;;;5052564;28;20033;-66
2024/01/18 02:37:32;;;;;;;1.27;0.80;;;15.30;92.30;;;;;;5052666;28;20025;-67
2024/01/18 02:39:58;;;;;;;2.60;0.80;;;15.30;92.10;;;;;;5054100;28;20028;-65
2024/01/18 02:42:23;;;;;;;2.03;1.80;;;15.30;92.10;;;;;;5056936;28;20040;-64
2024/01/18 02:44:50;;;;;;;1.90;1.15;;;15.40;91.10;;;;;;5056476;28;20040;-67
2024/01/18 02:47:16;;;;;;;1.58;1.05;;;15.40;90.30;;;;;;5056582;28;20086;-61
2024/01/18 02:49:42;;;;;;;1.55;0.98;;;15.40;90.50;;;;;;5056302;28;20025;-63
2024/01/18 02:52:07;;;;;;;2.97;1.52;;;15.50;90.20;;;;;;5056744;28;20028;-67
2024/01/18 02:54:33;;;;;;;1.40;1.05;;;15.50;89.80;;;;;;5056418;28;20382;-64
2024/01/18 02:56:58;;;;;;;1.83;0.95;;;15.50;88.00;;;;;;5056457;28;20021;-69
2024/01/18 02:59:24;;;;;;;1.75;1.15;;;15.60;84.90;;;;;;5056355;28;20049;-69
2024/01/18 03:01:50;;;;;;;2.33;1.55;;;15.70;84.40;;;;;;5056251;28;20418;-61
2024/01/18 03:04:15;;;;;;;2.40;1.20;;;15.70;84.70;;;;;;5056055;28;20095;-69
2024/01/18 03:06:42;;;;;;;1.83;1.00;;;15.70;84.00;;;;;;5056569;28;20032;-62
2024/01/18 03:09:08;;;;;;;2.42;0.88;;;15.70;80.20;;;;;;5056105;28;20035;-62
2024/01/18 03:11:33;;;;;;;1.52;0.90;;;15.80;78.50;;;;;;5056160;28;20112;-61
2024/01/18 03:14:00;;;;;;;2.40;0.90;;;15.80;78.10;;;;;;5056038;28;20036;-65
2024/01/18 03:16:25;;;;;;;1.80;1.25;;;15.90;77.50;;;;;;5056312;28;20052;-68
2024/01/18 03:18:51;;;;;;;1.95;1.42;;;15.80;77.40;;;;;;5055757;28;20526;-67
2024/01/18 03:21:16;;;;;;;3.30;3.00;;;15.80;78.40;;;;;;5056028;28;20399;-67
2024/01/18 03:23:42;;;;;;;2.50;1.88;;;15.70;77.30;;;;;;5055883;28;20098;-66
2024/01/18 03:26:08;;;;;;;1.63;1.10;;;15.80;76.70;;;;;;5055865;28;20028;-66
2024/01/18 03:28:34;;;;;;;1.42;1.00;;;15.80;72.40;;;;;;5055916;28;20017;-67
2024/01/18 03:31:00;;;;;;;1.38;1.08;;;15.90;72.70;;;;;;5055851;28;20021;-66
2024/01/18 03:33:25;;;;;;;1.27;1.05;;;16.00;71.60;;;;;;5055392;28;20518;-64
2024/01/18 03:35:51;;;;;;;1.45;0.70;;;16.00;70.80;;;;;;5056038;28;20025;-64
2024/01/18 03:38:17;;;;;;;1.45;0.80;;;16.00;69.10;;;;;;5055981;28;20053;-66
2024/01/18 03:40:42;;;;;;;1.38;0.63;;;16.00;68.20;;;;;;5055534;28;20419;-65
2024/01/18 03:43:08;;;;;;;1.02;0.70;;;16.10;66.00;;;;;;5055588;28;20151;-66
2024/01/18 03:45:34;;;;;;;1.55;1.08;;;16.20;65.80;;;;;;5055529;28;20024;-67
2024/01/18 03:47:59;;;;;;;2.05;1.70;;;16.20;64.20;;;;;;5055118;28;20021;-63
2024/01/18 03:50:25;;;;;;;1.98;1.77;;;16.30;64.10;;;;;;5055479;28;20542;-64
2024/01/18 03:52:51;;;;;;;1.02;0.70;;;16.30;63.20;;;;;;5055332;28;20028;-63
2024/01/18 03:55:16;;;;;;;0.90;0.60;;;16.30;62.30;;;;;;5055159;28;20041;-67
2024/01/18 03:57:42;;;;;;;0.98;0.68;;;16.40;61.60;;;;;;5055401;28;20018;-63
2024/01/18 04:00:12;;;;;;;1.45;0.60;;;16.40;60.30;;;;;;5055243;28;20028;-65
2024/01/18 04:02:38;;;;;;;0.82;0.68;;;16.50;60.80;;;;;;5055031;28;20074;-66
2024/01/18 04:05:04;;;;;;;0.80;0.50;;;16.50;60.40;;;;;;5055287;28;20100;-61
2024/01/18 04:07:30;;;;;;;1.10;0.70;;;16.60;59.50;;;;;;5055208;28;20028;-61
2024/01/18 04:09:56;;;;;;;3.28;2.00;;;16.60;59.10;;;;;;5055001;28;20025;-65
2024/01/18 04:12:22;;;;;;;1.67;1.25;;;16.60;59.50;;;;;;5054977;28;20032;-66
2024/01/18 04:14:48;;;;;;;1.63;0.80;;;16.50;59.10;;;;;;5054875;28;20032;-70
2024/01/18 04:17:14;;;;;;;0.90;0.80;;;16.50;58.70;;;;;;5054784;28;20021;-69
2024/01/18 04:19:39;;;;;;;1.65;1.20;;;16.50;58.90;;;;;;5054459;28;20052;-67
2024/01/18 04:22:06;;;;;;;1.05;0.60;;;16.50;58.90;;;;;;5055147;28;20110;-64
2024/01/18 04:24:32;;;;;;;1.83;0.90;;;16.40;58.50;;;;;;5054783;28;20021;-63
2024/01/18 04:26:58;;;;;;;1.67;0.90;;;16.50;58.20;;;;;;5054614;28;20025;-62
2024/01/18 04:29:24;;;;;;;2.03;1.83;;;16.50;58.20;;;;;;5054777;28;20108;-70
2024/01/18 04:31:49;;;;;;;1.67;1.20;;;16.50;57.70;;;;;;5054639;28;20028;-65
2024/01/18 04:34:15;;;;;;;0.50;0.50;;;16.50;57.60;;;;;;5054425;28;20047;-68
2024/01/18 04:36:41;;;;;;;1.15;1.00;;;16.50;57.70;;;;;;5054524;28;20025;-68
2024/01/18 04:39:06;;;;;;;0.75;0.43;;;16.50;58.00;;;;;;5054514;28;20483;-62
2024/01/18 04:41:32;;;;;;;0.60;0.50;;;16.50;57.50;;;;;;5054428;28;20028;-67
2024/01/18 04:43:58;;;;;;;0.88;0.80;;;16.50;57.40;;;;;;5054378;28;20447;-62
2024/01/18 04:46:25;;;;;;;2.10;1.88;;;16.50;57.80;;;;;;5054403;28;20044;-64
2024/01/18 04:48:51;;;;;;;2.92;2.42;;;16.40;57.70;;;;;;5054291;28;20021;-64
2024/01/18 04:51:18;;;;;;;3.00;2.42;;;16.40;57.20;;;;;;5054207;28;20025;-64
2024/01/18 04:53:43;;;;;;;1.58;1.40;;;16.40;58.00;;;;;;5054102;28;20468;-65
2024/01/18 04:56:09;;;;;;;1.60;1.38;;;16.30;57.90;;;;;;5054197;28;20028;-66
2024/01/18 04:58:36;;;;;;;3.25;2.45;;;16.40;57.60;;;;;;5053869;28;20028;-66
2024/01/18 05:01:02;;;;;;;3.30;2.17;;;16.40;56.80;;;;;;5054082;28;20021;-69
2024/01/18 05:03:27;;;;;;;3.42;2.47;;;16.50;57.60;;;;;;5053490;28;20035;-67
2024/01/18 05:05:56;;;;;;;3.40;3.10;;;16.60;57.00;;;;;;5053921;28;20025;-64
2024/01/18 05:08:22;;;;;;;2.97;2.67;;;16.60;57.30;;;;;;5053875;28;20025;-66
2024/01/18 05:10:48;;;;;;;3.80;2.83;;;16.50;57.20;;;;;;5053886;28;20025;-67
2024/01/18 05:13:14;;;;;;;1.90;1.60;;;16.50;57.70;;;;;;5053562;28;20040;-66
2024/01/18 05:15:40;;;;;;;3.05;2.47;;;16.60;57.50;;;;;;5053916;28;20021;-66
2024/01/18 05:18:08;;;;;;;2.17;1.73;;;16.50;57.40;;;;;;5053840;28;20025;-66
2024/01/18 05:20:34;;;;;;;2.40;2.20;;;16.50;57.10;;;;;;5053346;28;20130;-63
2024/01/18 05:23:00;;;;;;;2.53;1.63;;;16.50;57.30;;;;;;5053808;28;20029;-64
2024/01/18 05:25:26;;;;;;;4.80;4.30;;;16.50;57.10;;;;;;5053666;28;20026;-67
2024/01/18 05:27:52;;;;;;;4.15;3.47;;;16.60;57.40;;;;;;5053388;28;20098;-69
2024/01/18 05:30:17;;;;;;;2.72;1.73;;;16.50;57.40;;;;;;5053565;28;20474;-66
2024/01/18 05:32:43;;;;;;;1.92;1.65;;;16.50;57.30;;;;;;5053956;28;20020;-61
2024/01/18 05:35:09;;;;;;;2.50;1.48;;;16.60;57.40;;;;;;5053315;28;20025;-67
2024/01/18 05:37:35;;;;;;;1.52;0.80;;;16.50;57.70;;;;;;5053389;28;20021;-68
2024/01/18 05:40:00;;;;;;;4.15;2.97;;;16.40;57.70;;;;;;5053343;28;20028;-67
2024/01/18 05:42:29;;;;;;;4.00;3.10;;;16.50;57.50;;;;;;5053471;28;20047;-64
2024/01/18 05:44:54;;;;;;;2.97;2.25;;;16.50;58.00;;;;;;5053309;28;20033;-67
2024/01/18 05:47:20;;;;;;;6.82;5.15;;;16.40;58.20;;;;;;5053271;28;20025;-68
2024/01/18 05:49:46;;;;;;;4.18;3.22;;;16.50;57.50;;;;;;5053237;28;20021;-66
2024/01/18 05:52:12;;;;;;;4.55;3.03;;;16.40;57.60;;;;;;5053136;28;20036;-67
2024/01/18 05:54:38;;;;;;;3.35;2.05;;;16.50;57.50;;;;;;5053111;28;20391;-66
2024/01/18 05:57:04;;;;;;;6.85;4.82;;;16.50;57.60;;;;;;5053279;28;20029;-62
2024/01/18 05:59:30;;;;;;;8.77;6.30;;;16.50;57.70;;;;;;5053251;28;20024;-69
2024/01/18 06:01:56;;;;;;;6.82;5.45;;;16.50;57.70;;;;;;5053232;28;20375;-63
2024/01/18 06:04:24;;;;;;;9.00;6.25;;;16.50;57.50;;;;;;5052992;28;20032;-66
2024/01/18 06:06:49;;;;;;;7.82;6.00;;;16.40;57.60;;;;;;5052955;28;20491;-67
2024/01/18 06:09:16;;;;;;;8.48;6.28;;;16.40;57.70;;;;;;5053039;28;20032;-66
2024/01/18 06:11:44;;;;;;;7.95;5.97;;;16.50;57.70;;;;;;5053096;28;20446;-65
2024/01/18 06:14:10;;;;;;;5.15;4.43;;;16.40;57.40;;;;;;5052862;28;20028;-64
2024/01/18 06:16:36;;;;;;;5.85;4.75;;;16.40;57.70;;;;;;5056038;28;20021;-64
2024/01/18 06:19:01;;;;;;;6.43;4.63;;;16.40;57.60;;;;;;5056840;28;20040;-63
2024/01/18 06:21:27;;;;;;;6.68;5.43;;;16.40;57.90;;;;;;5057141;28;20028;-69
2024/01/18 06:23:53;;;;;;;8.35;5.90;;;16.30;58.20;;;;;;5056849;28;20138;-69
2024/01/18 06:26:18;;;;;;;17.65;13.93;;;16.30;58.40;;;;;;5056888;28;20066;-69
2024/01/18 06:28:44;;;;;;;15.57;13.98;;;16.10;62.20;;;;;;5056870;28;20028;-64
2024/01/18 06:31:10;;;;;;;9.20;8.30;;;15.70;67.00;;;;;;5056856;28;20060;-64
2024/01/18 06:33:36;;;;;;;25.77;23.08;;;15.40;66.00;;;;;;5056843;28;20040;-69
2024/01/18 06:36:02;;;;;;;22.23;19.92;;;15.30;76.10;;;;;;5057096;28;20486;-66
2024/01/18 06:38:28;;;;;;;19.63;16.27;;;14.90;78.70;;;;;;5056801;28;20017;-64
2024/01/18 06:40:58;;;;;;;45.70;36.35;;;14.90;75.80;;;;;;5056485;28;20459;-69
2024/01/18 06:43:25;;;;;;;36.63;28.45;;;14.80;83.10;;;;;;5056754;28;20130;-66
2024/01/18 06:45:54;;;;;;;63.95;51.42;;;14.70;84.50;;;;;;5056574;28;20459;-67
2024/01/18 06:48:24;;;;;;;46.63;39.20;;;14.70;87.80;;;;;;5056522;28;20112;-66
2024/01/18 06:50:51;;;;;;;61.28;48.60;;;14.50;90.00;;;;;;5036865;28;20030;-67
2024/01/18 06:53:17;;;;;;;47.22;39.63;;;14.40;90.20;;;;;;5036278;28;20032;-64
2024/01/18 06:55:43;;;;;;;41.78;35.35;;;14.30;91.10;;;;;;5036720;28;20025;-67
2024/01/18 06:58:09;;;;;;;28.95;24.90;;;14.30;91.00;;;;;;5036412;28;20026;-66
2024/01/18 07:00:34;;;;;;;27.83;23.65;;;14.40;89.80;;;;;;5036251;28;20509;-68
2024/01/18 07:03:00;;;;;;;28.15;23.38;;;14.50;90.00;;;;;;5036507;28;20044;-66
2024/01/18 07:05:26;;;;;;;37.70;33.47;;;14.50;90.00;;;;;;5036374;28;20529;-68
2024/01/18 07:07:52;;;;;;;26.27;22.73;;;14.50;91.50;;;;;;5036180;28;20063;-67
2024/01/18 07:10:18;;;;;;;23.10;20.75;;;14.40;90.20;;;;;;5036090;28;20026;-61
2024/01/18 07:12:44;;;;;;;22.10;19.13;;;14.40;88.60;;;;;;5036214;28;20082;-63
2024/01/18 07:15:10;;;;;;;39.63;35.33;;;14.40;90.90;;;;;;5036056;28;20035;-61
2024/01/18 07:17:36;;;;;;;26.88;23.00;;;14.40;92.80;;;;;;5036276;28;20025;-65
2024/01/18 07:20:04;;;;;;;26.08;22.88;;;14.20;92.50;;;;;;5035955;28;20508;-65
2024/01/18 07:22:30;;;;;;;34.65;28.65;;;14.30;93.10;;;;;;5036023;28;20033;-66
2024/01/18 07:24:56;;;;;;;21.80;19.55;;;14.30;92.30;;;;;;5035793;28;20079;-68
2024/01/18 07:27:22;;;;;;;49.83;44.40;;;14.30;89.00;;;;;;5035714;28;20048;-62
2024/01/18 07:29:49;;;;;;;58.80;52.40;;;14.40;92.00;;;;;;5035906;28;20471;-63
2024/01/18 07:32:15;;;;;;;60.50;51.90;;;14.40;92.50;;;;;;5035757;28;20017;-68
2024/01/18 07:34:41;;;;;;;46.95;41.92;;;14.40;93.00;;;;;;5035947;28;20457;-65
2024/01/18 07:37:08;;;;;;;47.30;42.20;;;14.40;92.40;;;;;;5035750;28;20104;-67
2024/01/18 07:39:34;;;;;;;43.60;37.65;;;14.50;92.10;;;;;;5035526;28;20361;-67
2024/01/18 07:42:00;;;;;;;34.25;29.88;;;14.50;91.50;;;;;;5035953;28;20096;-66
2024/01/18 07:44:27;;;;;;;35.95;32.05;;;14.60;90.30;;;;;;5035819;28;20025;-66
2024/01/18 07:46:53;;;;;;;37.63;31.73;;;14.60;90.30;;;;;;5035430;28;20025;-65
2024/01/18 07:49:20;;;;;;;30.58;27.00;;;14.60;91.70;;;;;;5035509;28;20075;-64
2024/01/18 07:51:46;;;;;;;29.27;25.23;;;14.60;91.50;;;;;;5034913;28;20110;-65
2024/01/18 07:54:13;;;;;;;26.08;23.35;;;14.70;92.10;;;;;;5035043;28;20029;-63
2024/01/18 07:56:38;;;;;;;22.45;20.05;;;14.80;91.70;;;;;;5035620;28;20029;-63
2024/01/18 07:59:04;;;;;;;24.10;21.60;;;14.80;91.00;;;;;;5035352;28;20090;-63
2024/01/18 08:01:30;;;;;;;22.05;19.70;;;14.80;91.40;;;;;;5045387;28;20032;-60
2024/01/18 08:03:56;;;;;;;20.48;18.27;;;14.90;90.00;;;;;;5051701;28;20602;-61
2024/01/18 08:06:21;;;;;;;22.67;20.17;;;15.00;89.60;;;;;;5055114;28;20375;-65
2024/01/18 08:08:47;;;;;;;21.17;18.90;;;15.00;89.10;;;;;;5054936;28;20109;-66
2024/01/18 08:11:13;;;;;;;27.02;22.95;;;15.00;90.20;;;;;;5048557;28;20483;-67
2024/01/18 08:13:40;;;;;;;44.75;36.88;;;15.20;85.50;;;;;;5036020;28;20037;-60
2024/01/18 08:16:07;;;;;;;32.53;28.67;;;15.30;86.90;;;;;;5052629;28;20115;-63
2024/01/18 08:18:33;;;;;;;39.83;33.75;;;15.40;83.90;;;;;;5054911;28;20379;-63
2024/01/18 08:21:00;;;;;;;22.30;18.08;;;15.60;80.70;;;;;;5054785;28;20159;-61
2024/01/18 08:23:26;;;;;;;19.70;17.00;;;16.10;65.30;;;;;;5054663;28;20025;-72
2024/01/18 08:25:52;;;;;;;13.68;10.50;;;16.40;60.60;;;;;;5054667;28;20028;-65
2024/01/18 08:28:18;;;;;;;17.08;14.38;;;16.80;57.00;;;;;;5054840;28;20025;-69
2024/01/18 08:30:47;;;;;;;16.00;14.05;;;17.80;56.70;;;;;;5054707;28;20025;-64
2024/01/18 08:33:13;;;;;;;15.65;13.80;;;18.80;55.10;;;;;;5054405;28;20055;-64
2024/01/18 08:35:39;;;;;;;15.38;13.88;;;18.90;53.00;;;;;;5054534;28;20016;-61
2024/01/18 08:38:05;;;;;;;17.05;15.25;;;19.00;55.30;;;;;;5053625;28;20021;-61
2024/01/18 08:40:30;;;;;;;16.08;14.35;;;19.40;50.70;;;;;;5054831;28;20360;-61
2024/01/18 08:42:56;;;;;;;13.75;12.45;;;19.30;51.10;;;;;;5054533;28;20025;-66
2024/01/18 08:45:26;;;;;;;12.60;11.25;;;19.40;54.90;;;;;;5054170;28;20036;-65
2024/01/18 08:47:52;;;;;;;13.98;12.68;;;19.30;51.40;;;;;;5053127;28;20104;-69
2024/01/18 08:50:17;;;;;;;15.57;14.07;;;19.20;52.90;;;;;;5053853;28;20048;-63
2024/01/18 08:52:43;;;;;;;16.13;14.43;;;19.70;52.40;;;;;;5036928;28;20101;-63
2024/01/18 08:55:09;;;;;;;20.42;18.42;;;19.70;53.30;;;;;;5034208;28;20049;-65
2024/01/18 08:57:35;;;;;;;20.25;18.23;;;19.80;53.60;;;;;;5034182;28;20021;-62
2024/01/18 09:00:01;;;;;;;22.55;20.33;;;20.50;48.80;;;;;;5034408;28;20109;-68
2024/01/18 09:02:27;;;;;;;18.95;17.15;;;20.40;51.10;;;;;;5034201;28;20076;-64
2024/01/18 09:04:53;;;;;;;18.20;16.42;;;20.50;48.80;;;;;;5033797;28;20096;-67
2024/01/18 09:07:19;;;;;;;18.08;16.27;;;20.60;47.60;;;;;;5034155;28;20021;-65
2024/01/18 09:09:45;;;;;;;17.95;16.08;;;21.50;51.40;;;;;;5034262;28;20032;-60
2024/01/18 09:12:11;;;;;;;15.48;14.00;;;21.60;46.50;;;;;;5033879;28;20024;-65
2024/01/18 09:14:37;;;;;;;14.27;12.93;;;21.40;45.90;;;;;;5034129;28;20450;-66
2024/01/18 09:17:11;;;;;;;14.68;13.27;;;21.40;46.60;;;;;;5033876;28;20112;-64
2024/01/18 09:19:36;;;;;;;;;;;21.30;47.70;;;;;;5033541;28;20034;-63
2024/01/18 09:22:02;;;;;;;11.48;10.38;;;21.00;47.10;;;;;;5033866;28;19932;-63
2024/01/18 09:24:28;;;;;;;10.73;9.63;;;20.80;48.10;;;;;;5033692;28;20025;-63
2024/01/18 09:26:55;;;;;;;12.02;8.43;;;20.80;46.30;;;;;;5033821;28;20050;-65
2024/01/18 09:29:21;;;;;;;15.50;9.70;;;20.70;45.90;;;;;;5033721;28;20025;-61
2024/01/18 09:31:46;;;;;;;10.38;8.73;;;20.60;47.80;;;;;;5033612;28;20259;-63
2024/01/18 09:34:12;;;;;;;9.13;8.05;;;20.40;46.70;;;;;;5033187;28;20040;-64
2024/01/18 09:36:38;;;;;;;10.50;9.38;;;20.10;48.40;;;;;;5033575;28;20535;-66
2024/01/18 09:39:15;;;;;;;11.65;9.50;;;19.90;46.10;;;;;;5033452;28;20030;-59
2024/01/18 09:41:50;;;;;;;8.23;6.63;;;19.60;46.60;;;;;;5033314;28;20028;-61
2024/01/18 09:44:24;;;;;;;6.35;5.47;;;19.40;47.00;;;;;;5033571;28;20033;-63
2024/01/18 09:46:50;;;;;;;8.40;5.95;;;19.40;47.70;;;;;;5046416;28;20029;-64
2024/01/18 09:49:19;;;;;;;6.07;4.85;;;19.40;47.20;;;;;;5052884;28;20387;-67
2024/01/18 09:51:46;;;;;;;6.63;5.18;;;19.30;47.10;;;;;;5050274;28;20025;-63
2024/01/18 09:54:12;;;;;;;6.75;5.43;;;19.20;47.80;;;;;;5035724;28;20133;-66
2024/01/18 09:56:43;;;;;;;5.90;4.63;;;19.20;48.60;;;;;;5033202;28;20029;-67
2024/01/18 09:59:16;;;;;;;11.35;8.73;;;19.20;48.40;;;;;;5031904;28;20435;-65
2024/01/18 10:01:42;;;;;;;5.97;4.90;;;19.20;47.90;;;;;;5032987;28;20075;-59
2024/01/18 10:04:12;;;;;;;4.90;4.13;;;19.20;48.60;;;;;;5033460;28;20419;-65
2024/01/18 10:06:38;;;;;;;4.80;4.30;;;19.20;48.50;;;;;;5033234;28;20025;-61
2024/01/18 10:09:10;;;;;;;5.97;3.75;;;19.20;48.90;;;;;;5033123;28;20357;-63
2024/01/18 10:11:36;;;;;;;4.28;3.53;;;19.20;48.30;;;;;;5033136;28;20025;-61
2024/01/18 10:14:02;;;;;;;3.92;2.72;;;19.10;48.40;;;;;;5033254;28;20120;-67
2024/01/18 10:16:36;;;;;;;7.75;6.80;;;19.20;49.20;;;;;;5031946;28;20156;-67
2024/01/18 10:19:05;;;;;;;4.20;3.40;;;19.30;49.40;;;;;;5032729;28;20550;-66
2024/01/18 10:21:33;;;;;;;3.67;2.80;;;19.30;48.90;;;;;;5031788;28;20037;-63
2024/01/18 10:24:00;;;;;;;3.33;2.55;;;19.30;48.40;;;;;;5032756;28;20502;-62
2024/01/18 10:26:31;;;;;;;3.70;3.13;;;19.40;48.70;;;;;;5033001;28;20120;-62
2024/01/18 10:28:57;;;;;;;4.82;2.33;;;19.40;48.50;;;;;;5033205;28;20025;-64
2024/01/18 10:31:23;;;;;;;2.53;2.00;;;19.40;48.40;;;;;;5032856;28;20096;-62
2024/01/18 10:33:50;;;;;;;2.45;1.35;;;19.50;48.70;;;;;;5032932;28;20474;-62
2024/01/18 10:36:15;;;;;;;2.90;2.60;;;19.50;48.20;;;;;;5032852;28;20109;-60
2024/01/18 10:38:41;;;;;;;3.28;2.45;;;19.40;48.30;;;;;;5033052;28;20056;-65
2024/01/18 10:41:08;;;;;;;2.67;1.60;;;19.40;48.80;;;;;;5033002;28;20053;-61
2024/01/18 10:43:35;;;;;;;3.55;2.15;;;19.40;48.60;;;;;;5032732;28;20036;-62
2024/01/18 10:46:02;;;;;;;2.45;2.25;;;19.50;49.10;;;;;;5031963;28;20083;-63
2024/01/18 10:48:32;;;;;;;2.50;2.30;;;19.50;49.40;;;;;;5032721;28;20387;-63
2024/01/18 10:50:58;;;;;;;2.38;2.15;;;19.50;48.60;;;;;;5032391;28;20045;-64
2024/01/18 10:53:25;;;;;;;2.88;2.35;;;19.60;48.80;;;;;;5032183;28;20022;-62
2024/01/18 10:55:52;;;;;;;3.83;2.78;;;19.70;48.90;;;;;;5032018;28;20061;-64
2024/01/18 10:58:18;;;;;;;3.00;2.67;;;19.80;48.90;;;;;;5032908;28;20472;-63
2024/01/18 11:00:48;;;;;;;4.47;3.20;;;19.90;48.40;;;;;;5032995;28;20500;-64
2024/01/18 11:03:15;;;;;;;2.28;2.00;;;19.90;48.00;;;;;;5036081;28;20113;-61
2024/01/18 11:05:44;;;;;;;2.55;1.30;;;19.90;48.00;;;;;;5036117;28;20460;-64
2024/01/18 11:08:14;;;;;;;2.80;1.30;;;20.00;48.30;;;;;;5036438;28;20021;-62
2024/01/18 11:10:41;;;;;;;2.55;1.67;;;20.30;47.60;;;;;;5035833;28;20031;-64
2024/01/18 11:13:08;;;;;;;2.78;2.38;;;20.60;46.60;;;;;;5035550;28;20112;-61
2024/01/18 11:15:42;;;;;;;1.73;1.50;;;20.60;46.80;;;;;;5035593;28;20029;-65
2024/01/18 11:18:09;;;;;;;3.38;2.67;;;20.60;47.00;;;;;;5036296;28;20033;-65
2024/01/18 11:20:58;;;;;;;3.42;2.80;;;20.50;46.80;;;;;;5035060;28;20046;-64
2024/01/18 11:23:53;;;;;;;2.38;2.10;;;20.60;46.60;;;;;;5034091;28;20026;-65
2024/01/18 11:26:21;;;;;;;3.55;2.58;;;20.60;47.00;;;;;;5034354;28;20041;-61
2024/01/18 11:28:47;;;;;;;4.63;2.88;;;20.60;46.90;;;;;;5035372;28;20533;-63
2024/01/18 11:31:12;;;;;;;2.70;2.13;;;20.60;46.80;;;;;;5035805;28;20100;-65
2024/01/18 11:33:38;;;;;;;3.67;2.55;;;20.70;46.90;;;;;;5035563;28;20365;-65
2024/01/18 11:36:07;;;;;;;2.20;1.48;;;20.80;46.60;;;;;;5035480;28;20030;-63
2024/01/18 11:38:43;;;;;;;2.22;1.73;;;20.90;45.90;;;;;;5035643;28;20029;-64
2024/01/18 11:41:18;;;;;;;1.20;1.10;;;20.80;46.20;;;;;;5035520;28;20104;-64
2024/01/18 11:43:58;;;;;;;2.55;1.42;;;20.70;46.20;;;;;;5034576;28;20071;-62
2024/01/18 11:46:41;;;;;;;2.95;2.72;;;20.80;46.40;;;;;;5035482;28;20017;-63
2024/01/18 11:49:07;;;;;;;4.53;3.53;;;20.90;46.70;;;;;;5035492;28;20526;-63
2024/01/18 11:51:34;;;;;;;3.15;2.70;;;21.00;47.20;;;;;;5035387;28;20105;-62
2024/01/18 11:54:01;;;;;;;2.17;1.80;;;21.00;46.30;;;;;;5035070;28;20030;-62
2024/01/18 11:56:28;;;;;;;6.32;1.98;;;21.10;45.60;;;;;;5035307;28;20048;-64
2024/01/18 11:58:57;;;;;;;2.67;1.48;;;21.10;45.80;;;;;;5035443;28;20037;-64
2024/01/18 12:01:22;;;;;;;1.80;1.38;;;21.20;45.20;;;;;;5035270;28;20540;-62
2024/01/18 12:03:48;;;;;;;2.65;1.63;;;21.30;44.90;;;;;;5034704;28;20105;-63
2024/01/18 12:06:15;;;;;;;3.42;2.55;;;21.40;44.80;;;;;;5034446;28;20037;-63
2024/01/18 12:08:43;;;;;;;3.53;2.85;;;21.60;44.50;;;;;;5033159;28;20024;-66
2024/01/18 12:11:09;;;;;;;3.63;2.60;;;21.70;43.80;;;;;;5034813;28;20017;-63
2024/01/18 12:13:35;;;;;;;6.25;3.40;;;21.80;43.60;;;;;;5033812;28;20030;-64
2024/01/18 12:16:01;;;;;;;3.25;1.92;;;22.00;42.80;;;;;;5034729;28;20434;-63
2024/01/18 12:18:39;;;;;;;1.75;1.63;;;22.30;41.80;;;;;;5034925;28;20063;-62
2024/01/18 12:21:05;;;;;;;2.28;1.80;;;22.60;41.80;;;;;;5033776;28;20076;-64
2024/01/18 12:23:31;;;;;;;2.45;1.45;;;22.90;41.60;;;;;;5034836;28;20029;-64
2024/01/18 12:25:57;;;;;;;2.60;1.05;;;23.10;39.90;;;;;;5034237;28;20032;-64
2024/01/18 12:28:23;;;;;;;2.28;1.30;;;23.10;39.70;;;;;;5035239;28;20108;-63
2024/01/18 12:30:49;;;;;;;2.60;1.85;;;23.40;39.50;;;;;;5041352;28;20116;-65
2024/01/18 12:33:15;;;;;;;2.13;1.40;;;23.50;39.50;;;;;;5037448;28;20033;-62
2024/01/18 12:35:41;;;;;;;2.55;1.23;;;23.50;39.30;;;;;;5033311;28;20400;-64
2024/01/18 12:38:07;;;;;;;3.33;2.17;;;23.60;39.10;;;;;;5034533;28;20026;-63